Pagina principale
METAR-TAF:

METAR-TAF

Aeroporti :

Dübendorf, Svizzera

latitudine: 47-23-55N, longitudine: 8-38-53E, altezza: 448 m

Osservazione

Il bollettino è stato emesso 36 minuti fa, alle 16:20 UTC
Vento 4 kt da ovest, variando fra sud-ovest e ovest/nord-ovest
Temperature 3°C
Umidità 75%
Pressione 1027 hPa
Visibilità 10 km o più
Nubi sparse ad un'altezza di 4300 ft
Cielo coperto ad un'altezza di 6300 ft

METAR: LSMD 201620Z AUTO 26004KT 230V290 9999NDV SCT043 OVC063 03/M01 Q1027 RMK

Ora: 17:56 (16:56 UTC)


TAF: mancante

Osservazioni e previsioni meteorologiche di più di 4000 aeroporti (messaggi METAR e TAF).

Le stazioni disponibili sono rappresentate dai dischi gialli e rossi sulla carta.

Puntare il mouse per vedere il nome della stazione.

Clicca sopra per visualizzare le osservazioni e previsioni meteorologiche.

Per cambiare la mappa : fare clic sui pulsanti verdi con una croce nera per ingrandire, il pulsante verde con un trattino per diminuire, o sulla freccia verde per le mappe adiacenti.


METAR-TAF: